Dolph, Arkansas
Current Conditions -  °F | °C
As of 9:53 AM on Thursday 23 Oct 2014 (Local Time) from KBPK Reporting Station
Clear Clear  
Wind Chill: 50°   Ceiling: Unl
Heat Index: 50°   Visibility: 9mi
Dew Point: 46°   Wind: 3mph
Humidity: 86%   Direction: 70°ENE
Pressure: 30.21"   Gusts: NA
Location:  36.23°N, 92.11°W
Report Text: KBPK 231453Z AUTO 07003KT 9SM CLR 10/08 A3021 RMK AO2 SLP227 T01000078 50008
Loading
Personal Weather Stations






























Interactive Weather Map
Tropical Storm Tracking
New forecast layout! Learn more

10-Day Weather Forecast

Advertisements
Track Severe Weather on mobile